createdAt,value
2019-02-08T00:01:29.946Z,26.20
2019-02-08T00:03:58.036Z,27.02
2019-02-08T00:06:26.625Z,25.50
2019-02-08T00:08:54.723Z,25.00
2019-02-08T00:11:22.776Z,27.00
2019-02-08T00:13:50.855Z,24.80
2019-02-08T00:16:18.983Z,27.00
2019-02-08T00:18:47.201Z,26.97
2019-02-08T00:21:15.289Z,26.00
2019-02-08T00:23:43.417Z,28.25
2019-02-08T00:26:11.512Z,27.95
2019-02-08T00:28:39.610Z,26.50
2019-02-08T00:31:07.624Z,26.33
2019-02-08T00:33:35.611Z,25.82
2019-02-08T00:36:04.088Z,27.30
2019-02-08T00:38:32.167Z,24.82
2019-02-08T00:41:00.250Z,27.00
2019-02-08T00:43:28.179Z,26.35
2019-02-08T00:45:56.179Z,26.23
2019-02-08T00:48:24.119Z,27.27
2019-02-08T00:50:52.092Z,27.60
2019-02-08T00:53:20.400Z,27.58
2019-02-08T00:55:48.495Z,26.82
2019-02-08T00:58:16.535Z,26.30
2019-02-08T01:00:44.583Z,23.98
2019-02-08T01:03:12.779Z,26.73
2019-02-08T01:05:41.113Z,25.27
2019-02-08T01:08:09.124Z,28.60
2019-02-08T01:10:37.413Z,27.25
2019-02-08T01:13:05.616Z,26.93
2019-02-08T01:15:33.751Z,27.60
2019-02-08T01:18:01.829Z,27.65
2019-02-08T01:20:29.924Z,26.65
2019-02-08T01:22:57.952Z,24.05
2019-02-08T01:25:26.226Z,24.90
2019-02-08T01:27:54.327Z,24.82
2019-02-08T01:30:26.311Z,24.82
2019-02-08T01:32:54.356Z,23.70
2019-02-08T01:35:22.594Z,26.05
2019-02-08T01:37:50.963Z,24.82
2019-02-08T01:40:21.036Z,25.88
2019-02-08T01:42:48.973Z,25.00
2019-02-08T01:45:18.192Z,25.00
2019-02-08T01:47:46.335Z,27.40
2019-02-08T01:50:15.504Z,25.85
2019-02-08T01:52:43.496Z,23.73
2019-02-08T01:55:11.610Z,25.25
2019-02-08T01:57:39.655Z,23.47
2019-02-08T02:00:12.610Z,26.80
2019-02-08T02:02:40.659Z,26.27
2019-02-08T02:05:08.584Z,25.20
2019-02-08T02:07:36.661Z,25.60
2019-02-08T02:10:05.572Z,25.32
2019-02-08T02:12:33.500Z,25.37
2019-02-08T02:15:01.522Z,23.60
2019-02-08T02:17:29.546Z,25.48
2019-02-08T02:19:57.928Z,25.45
2019-02-08T02:22:25.923Z,24.70
2019-02-08T02:24:53.880Z,25.80
2019-02-08T02:27:22.298Z,22.73
2019-02-08T02:29:50.314Z,23.57
2019-02-08T02:32:18.273Z,21.33
2019-02-08T02:34:46.301Z,23.80
2019-02-08T02:37:14.346Z,23.02
2019-02-08T02:39:42.333Z,23.05
2019-02-08T02:42:10.369Z,22.75
2019-02-08T02:44:38.937Z,23.83
2019-02-08T02:47:06.930Z,23.73
2019-02-08T02:49:34.999Z,25.40
2019-02-08T02:52:02.981Z,24.07
2019-02-08T02:54:31.029Z,25.37
2019-02-08T02:56:59.112Z,23.95
2019-02-08T02:59:27.168Z,24.27
2019-02-08T03:01:55.164Z,24.32
2019-02-08T03:04:23.210Z,23.67
2019-02-08T03:06:51.505Z,23.30
2019-02-08T03:09:19.480Z,21.42
2019-02-08T03:11:47.482Z,23.60
2019-02-08T03:14:15.530Z,23.30
2019-02-08T03:16:43.488Z,22.65
2019-02-08T03:19:11.553Z,24.05
2019-02-08T03:21:39.671Z,23.73
2019-02-08T03:24:12.924Z,22.55
2019-02-08T03:26:37.288Z,21.68
2019-02-08T03:29:05.273Z,21.12
2019-02-08T03:31:33.334Z,22.13
2019-02-08T03:34:01.444Z,21.17
2019-02-08T03:36:29.476Z,23.18
2019-02-08T03:38:57.561Z,23.83
2019-02-08T03:41:25.619Z,22.95
2019-02-08T03:43:53.604Z,23.40
2019-02-08T03:46:21.548Z,22.73
2019-02-08T03:48:50.577Z,23.97
2019-02-08T03:51:18.643Z,22.52
2019-02-08T03:53:46.612Z,22.22
2019-02-08T03:56:14.577Z,23.30
2019-02-08T03:58:42.636Z,23.62
2019-02-08T04:01:11.631Z,23.35
2019-02-08T04:03:41.512Z,21.57
2019-02-08T04:06:09.511Z,20.68
2019-02-08T04:08:37.474Z,22.13
2019-02-08T04:11:05.464Z,22.55
2019-02-08T04:13:33.433Z,23.20
2019-02-08T04:16:01.388Z,23.22
2019-02-08T04:18:29.375Z,25.02
2019-02-08T04:20:57.339Z,22.82
2019-02-08T04:23:25.348Z,24.52
2019-02-08T04:25:53.282Z,23.38
2019-02-08T04:28:21.369Z,23.18
2019-02-08T04:30:49.430Z,22.90
2019-02-08T04:33:17.463Z,22.33
2019-02-08T04:35:45.457Z,22.43
2019-02-08T04:38:13.521Z,22.83
2019-02-08T04:40:41.504Z,22.90
2019-02-08T04:43:09.577Z,20.87
2019-02-08T04:45:37.619Z,23.47
2019-02-08T04:48:05.617Z,22.17
2019-02-08T04:50:33.776Z,21.73
2019-02-08T04:53:01.761Z,22.03
2019-02-08T04:55:29.703Z,21.47
2019-02-08T04:57:57.681Z,20.90
2019-02-08T05:00:29.578Z,22.23
2019-02-08T05:02:57.597Z,21.55
2019-02-08T05:05:25.596Z,22.50
2019-02-08T05:07:53.554Z,21.35
2019-02-08T05:10:22.702Z,23.23
2019-02-08T05:12:50.779Z,23.70
2019-02-08T05:15:18.995Z,21.07
2019-02-08T05:17:47.162Z,19.55
2019-02-08T05:20:15.796Z,19.90
2019-02-08T05:22:43.768Z,19.70
2019-02-08T05:25:11.948Z,19.00
2019-02-08T05:27:39.876Z,20.20
2019-02-08T05:30:10.635Z,19.07
2019-02-08T05:32:38.668Z,18.90
2019-02-08T05:35:06.948Z,20.93
2019-02-08T05:37:35.331Z,21.70
2019-02-08T05:40:03.303Z,20.57
2019-02-08T05:42:31.257Z,20.80
2019-02-08T05:44:59.748Z,21.17
2019-02-08T05:47:27.697Z,18.40
2019-02-08T05:49:55.673Z,19.60
2019-02-08T05:52:23.649Z,20.93
2019-02-08T05:54:54.455Z,17.93
2019-02-08T05:57:21.334Z,18.20
2019-02-08T05:59:49.397Z,18.07
2019-02-08T06:02:17.364Z,20.50
2019-02-08T06:04:45.380Z,19.07
2019-02-08T06:07:13.389Z,20.43
2019-02-08T06:09:41.415Z,18.90
2019-02-08T06:12:09.377Z,21.00
2019-02-08T06:14:37.414Z,19.37
2019-02-08T06:17:05.403Z,20.60
2019-02-08T06:19:33.768Z,21.53
2019-02-08T06:22:01.729Z,21.77
2019-02-08T06:24:29.812Z,21.25
2019-02-08T06:26:57.776Z,21.20
2019-02-08T06:29:25.731Z,21.60
2019-02-08T06:31:53.717Z,21.40
2019-02-08T06:34:21.677Z,20.57
2019-02-08T06:36:49.679Z,21.30
2019-02-08T06:39:17.612Z,19.27
2019-02-08T06:41:45.591Z,20.67
2019-02-08T06:44:13.576Z,19.83
2019-02-08T06:46:41.505Z,20.30
2019-02-08T06:49:09.487Z,20.07
2019-02-08T06:51:37.544Z,23.43
2019-02-08T06:54:06.159Z,22.03
2019-02-08T06:57:11.582Z,23.20
2019-02-08T06:59:54.729Z,18.93
2019-02-08T07:02:28.979Z,22.17
2019-02-08T07:05:28.337Z,21.70
2019-02-08T07:08:12.729Z,22.90
2019-02-08T07:11:14.779Z,23.80
2019-02-08T07:14:07.823Z,22.70
2019-02-08T07:17:13.126Z,24.20
2019-02-08T07:19:58.720Z,22.60
2019-02-08T07:22:45.550Z,22.00
2019-02-08T07:25:31.540Z,22.00
2019-02-08T07:28:12.834Z,20.57
2019-02-08T07:31:05.624Z,21.00
2019-02-08T07:33:51.196Z,27.33
2019-02-08T07:36:54.150Z,21.27
2019-02-08T07:39:52.796Z,20.90
2019-02-08T07:42:34.027Z,22.27
2019-02-08T07:45:39.934Z,23.80
2019-02-08T07:48:36.338Z,22.80
2019-02-08T07:51:22.813Z,22.03
2019-02-08T07:54:11.372Z,22.80
2019-02-08T07:56:57.567Z,22.47
2019-02-08T07:59:45.376Z,23.20
2019-02-08T08:02:31.166Z,23.97
2019-02-08T08:05:16.035Z,24.20
2019-02-08T08:07:54.875Z,23.17
2019-02-08T08:10:42.264Z,24.17
2019-02-08T08:13:20.620Z,24.37
2019-02-08T08:16:11.440Z,25.73
2019-02-08T08:18:58.946Z,29.73
2019-02-08T08:21:48.950Z,27.97
2019-02-08T08:24:33.589Z,29.23
2019-02-08T08:27:13.143Z,30.13
2019-02-08T08:29:58.818Z,26.87
2019-02-08T08:32:36.720Z,27.00
2019-02-08T08:35:30.153Z,26.10
2019-02-08T08:38:20.324Z,27.17
2019-02-08T08:41:07.318Z,27.30
2019-02-08T08:43:43.373Z,27.87
2019-02-08T08:46:19.291Z,30.47
2019-02-08T08:49:13.380Z,32.10
2019-02-08T08:51:53.124Z,34.70
2019-02-08T08:54:43.226Z,30.17
2019-02-08T08:57:19.729Z,28.57
2019-02-08T09:00:05.656Z,30.87
2019-02-08T09:02:51.451Z,30.77
2019-02-08T09:05:41.236Z,30.87
2019-02-08T09:08:27.127Z,32.13
2019-02-08T09:11:04.945Z,28.37
2019-02-08T09:13:45.518Z,24.97
2019-02-08T09:16:24.922Z,23.77
2019-02-08T09:19:12.961Z,26.93
2019-02-08T09:21:56.816Z,27.13
2019-02-08T09:24:35.872Z,25.20
2019-02-08T09:27:18.591Z,24.97
2019-02-08T09:30:05.664Z,24.17
2019-02-08T09:32:41.671Z,26.23
2019-02-08T09:35:28.717Z,23.93
2019-02-08T09:38:18.788Z,26.50
2019-02-08T09:41:06.007Z,27.57
2019-02-08T09:43:46.287Z,27.60
2019-02-08T09:46:36.188Z,26.93
2019-02-08T09:49:21.201Z,28.57
2019-02-08T09:51:57.240Z,27.50
2019-02-08T09:54:43.272Z,28.10
2019-02-08T09:57:36.494Z,28.03
2019-02-08T10:00:23.202Z,24.73
2019-02-08T10:03:07.620Z,26.50
2019-02-08T10:05:51.436Z,26.90
2019-02-08T10:08:38.625Z,24.47
2019-02-08T10:11:30.185Z,24.27
2019-02-08T10:14:28.553Z,22.00
2019-02-08T10:17:24.553Z,21.83
2019-02-08T10:20:07.132Z,19.37
2019-02-08T10:23:06.444Z,22.40
2019-02-08T10:26:05.738Z,21.67
2019-02-08T10:28:52.930Z,21.70
2019-02-08T10:31:42.904Z,22.37
2019-02-08T10:34:32.894Z,23.27
2019-02-08T10:37:18.695Z,23.23
2019-02-08T10:40:12.140Z,21.37
2019-02-08T10:42:58.467Z,25.23
2019-02-08T10:46:03.709Z,24.27
2019-02-08T10:49:03.909Z,22.00
2019-02-08T10:51:42.313Z,23.80
2019-02-08T10:54:26.992Z,23.70
2019-02-08T10:57:17.087Z,22.63
2019-02-08T11:00:09.950Z,24.37
2019-02-08T11:02:57.968Z,23.40
2019-02-08T11:05:44.778Z,23.37
2019-02-08T11:08:32.651Z,24.20
2019-02-08T11:11:19.519Z,24.40
2019-02-08T11:14:00.755Z,22.93
2019-02-08T11:16:51.386Z,23.83
2019-02-08T11:19:21.542Z,24.30
2019-02-08T11:21:54.337Z,23.83
2019-02-08T11:24:25.101Z,24.90
2019-02-08T11:26:55.478Z,24.70
2019-02-08T11:29:25.689Z,25.47
2019-02-08T11:31:56.244Z,26.90
2019-02-08T11:34:25.544Z,25.30
2019-02-08T11:36:55.287Z,25.53
2019-02-08T11:39:30.185Z,26.00
2019-02-08T11:42:00.680Z,25.53
2019-02-08T11:44:28.902Z,24.83
2019-02-08T11:46:56.871Z,25.20
2019-02-08T11:49:25.173Z,25.80
2019-02-08T11:51:54.786Z,26.03
2019-02-08T11:54:24.004Z,21.67
2019-02-08T11:56:53.837Z,24.20
2019-02-08T11:59:23.282Z,22.90
2019-02-08T12:01:53.031Z,27.10
2019-02-08T12:04:22.804Z,23.27
2019-02-08T12:06:55.045Z,22.40
2019-02-08T12:09:24.695Z,22.27
2019-02-08T12:11:54.425Z,21.83
2019-02-08T12:14:23.008Z,21.63
2019-02-08T12:16:52.720Z,21.70
2019-02-08T12:19:22.190Z,19.97
2019-02-08T12:21:51.697Z,17.77
2019-02-08T12:24:21.817Z,25.47
2019-02-08T12:26:52.547Z,19.10
2019-02-08T12:29:22.354Z,19.80
2019-02-08T12:31:53.116Z,19.27
2019-02-08T12:34:22.731Z,20.43
2019-02-08T12:36:52.450Z,20.97
2019-02-08T12:39:22.043Z,20.47
2019-02-08T12:41:51.409Z,18.90
2019-02-08T12:44:19.460Z,18.63
2019-02-08T12:46:47.543Z,19.17
2019-02-08T12:49:15.617Z,18.77
2019-02-08T12:51:44.676Z,18.50
2019-02-08T12:54:12.612Z,18.03
2019-02-08T12:56:45.419Z,19.27
2019-02-08T12:59:16.432Z,18.17
2019-02-08T13:01:44.406Z,17.87
2019-02-08T13:04:12.397Z,16.90
2019-02-08T13:06:40.319Z,17.20
2019-02-08T13:09:10.187Z,16.60
2019-02-08T13:11:46.161Z,18.03
2019-02-08T13:14:14.218Z,15.83
2019-02-08T13:16:45.872Z,17.40
2019-02-08T13:19:13.787Z,16.57
2019-02-08T13:21:41.770Z,19.87
2019-02-08T13:24:11.697Z,18.73
2019-02-08T13:26:41.840Z,17.53
2019-02-08T13:29:11.451Z,15.23
2019-02-08T13:31:41.533Z,15.67
2019-02-08T13:34:10.760Z,14.67
2019-02-08T13:36:39.756Z,15.60
2019-02-08T13:39:10.312Z,16.00
2019-02-08T13:41:39.742Z,15.53
2019-02-08T13:44:09.222Z,16.87
2019-02-08T13:46:38.693Z,15.00
2019-02-08T13:49:07.721Z,17.97
2019-02-08T13:51:36.504Z,15.40
2019-02-08T13:54:06.431Z,15.47
2019-02-08T13:56:36.033Z,17.73
2019-02-08T13:59:05.554Z,16.13
2019-02-08T14:01:34.848Z,15.17
2019-02-08T14:04:05.769Z,15.30
2019-02-08T14:06:34.214Z,16.10
2019-02-08T14:09:05.003Z,19.00
2019-02-08T14:11:34.969Z,16.20
2019-02-08T14:14:04.334Z,18.97
2019-02-08T14:16:35.258Z,17.17
2019-02-08T14:19:04.787Z,15.50
2019-02-08T14:21:35.145Z,16.40
2019-02-08T14:24:05.696Z,16.33
2019-02-08T14:26:35.261Z,15.57
2019-02-08T14:29:06.377Z,15.00
2019-02-08T14:31:35.845Z,15.33
2019-02-08T14:34:05.227Z,14.90
2019-02-08T14:36:33.246Z,15.77
2019-02-08T14:39:02.430Z,13.50
2019-02-08T14:41:33.157Z,15.73
2019-02-08T14:44:03.013Z,15.17
2019-02-08T14:46:32.324Z,14.80
2019-02-08T14:49:01.446Z,14.70
2019-02-08T14:51:31.972Z,16.50
2019-02-08T14:54:01.573Z,15.20
2019-02-08T14:56:30.871Z,15.30
2019-02-08T14:59:00.460Z,15.10
2019-02-08T15:01:29.584Z,15.17
2019-02-08T15:03:58.298Z,15.37
2019-02-08T15:06:26.375Z,15.57
2019-02-08T15:08:54.348Z,14.73
2019-02-08T15:11:22.356Z,16.63
2019-02-08T15:13:50.265Z,16.50
2019-02-08T15:16:19.453Z,16.80
2019-02-08T15:18:47.607Z,17.20
2019-02-08T15:21:15.703Z,16.50
2019-02-08T15:23:50.491Z,15.30
2019-02-08T15:26:19.528Z,17.17
2019-02-08T15:28:47.501Z,17.73
2019-02-08T15:31:15.482Z,17.60
2019-02-08T15:33:43.500Z,17.30
2019-02-08T15:36:11.672Z,17.90
2019-02-08T15:38:39.772Z,17.60
2019-02-08T15:41:07.816Z,18.17
2019-02-08T15:43:35.896Z,18.27
2019-02-08T15:46:05.100Z,20.40
2019-02-08T15:48:33.195Z,19.23
2019-02-08T15:51:01.203Z,21.10
2019-02-08T15:53:29.192Z,20.93
2019-02-08T15:55:59.200Z,20.90
2019-02-08T15:58:27.192Z,20.53
2019-02-08T16:00:55.235Z,22.57
2019-02-08T16:03:24.415Z,21.50
2019-02-08T16:05:52.463Z,24.43
2019-02-08T16:08:22.801Z,22.30
2019-02-08T16:10:52.054Z,24.80
2019-02-08T16:13:21.519Z,23.60
2019-02-08T16:15:49.639Z,24.07
2019-02-08T16:18:18.659Z,23.27
2019-02-08T16:20:47.010Z,24.90
2019-02-08T16:23:15.303Z,24.30
2019-02-08T16:25:43.385Z,25.47
2019-02-08T16:28:12.558Z,24.70
2019-02-08T16:30:40.791Z,25.00
2019-02-08T16:33:08.896Z,25.77
2019-02-08T16:35:37.052Z,25.60
2019-02-08T16:38:05.369Z,26.00
2019-02-08T16:40:34.085Z,25.70
2019-02-08T16:43:02.267Z,27.10
2019-02-08T16:45:31.234Z,24.43
2019-02-08T16:47:59.825Z,24.07
2019-02-08T16:50:28.571Z,26.77
2019-02-08T16:52:56.822Z,25.90
2019-02-08T16:55:25.006Z,27.93
2019-02-08T16:57:53.137Z,26.80
2019-02-08T17:00:22.627Z,25.40
2019-02-08T17:02:50.670Z,25.10
2019-02-08T17:05:19.153Z,26.80
2019-02-08T17:07:47.238Z,26.07
2019-02-08T17:10:15.899Z,25.37
2019-02-08T17:12:43.981Z,24.20
2019-02-08T17:15:13.339Z,30.00
2019-02-08T17:17:41.399Z,26.10
2019-02-08T17:20:11.674Z,25.87
2019-02-08T17:22:39.703Z,26.03
2019-02-08T17:25:07.719Z,27.20
2019-02-08T17:27:36.044Z,26.93
2019-02-08T17:30:05.994Z,25.77
2019-02-08T17:32:33.981Z,31.67
2019-02-08T17:35:01.933Z,27.47
2019-02-08T17:37:30.099Z,26.20
2019-02-08T17:39:58.605Z,26.07
2019-02-08T17:42:26.687Z,26.77
2019-02-08T17:44:54.772Z,25.20
2019-02-08T17:47:22.808Z,28.23
2019-02-08T17:49:50.884Z,26.87
2019-02-08T17:52:19.008Z,28.00
2019-02-08T17:54:47.077Z,26.83
2019-02-08T17:57:15.074Z,27.67
2019-02-08T17:59:43.155Z,26.00
2019-02-08T18:02:11.109Z,29.20
2019-02-08T18:04:39.144Z,28.93
2019-02-08T18:07:07.227Z,30.50
2019-02-08T18:09:35.319Z,27.63
2019-02-08T18:12:03.300Z,25.17
2019-02-08T18:14:31.307Z,26.30
2019-02-08T18:16:59.507Z,25.07
2019-02-08T18:19:27.700Z,26.53
2019-02-08T18:21:55.704Z,25.50
2019-02-08T18:24:23.794Z,26.70
2019-02-08T18:26:51.860Z,29.07
2019-02-08T18:29:20.252Z,29.17
2019-02-08T18:31:48.311Z,27.17
2019-02-08T18:34:16.383Z,27.50
2019-02-08T18:36:44.494Z,27.13
2019-02-08T18:39:12.444Z,27.40
2019-02-08T18:41:40.463Z,26.63
2019-02-08T18:44:08.503Z,27.10
2019-02-08T18:46:36.516Z,26.97
2019-02-08T18:49:04.471Z,32.10
2019-02-08T18:51:32.983Z,28.10
2019-02-08T18:54:01.047Z,30.10
2019-02-08T18:56:29.128Z,29.93
2019-02-08T18:58:57.080Z,27.20
2019-02-08T19:01:25.058Z,29.70
2019-02-08T19:03:53.160Z,28.93
2019-02-08T19:06:21.101Z,30.23
2019-02-08T19:08:49.997Z,26.63
2019-02-08T19:11:18.000Z,27.67
2019-02-08T19:13:46.047Z,28.23
2019-02-08T19:16:14.073Z,28.80
2019-02-08T19:18:42.137Z,27.50
2019-02-08T19:21:11.147Z,28.40
2019-02-08T19:23:39.144Z,28.43
2019-02-08T19:26:07.086Z,27.57
2019-02-08T19:28:36.147Z,29.33
2019-02-08T19:31:04.238Z,28.80
2019-02-08T19:33:32.229Z,28.60
2019-02-08T19:36:00.503Z,28.53
2019-02-08T19:38:28.528Z,30.20
2019-02-08T19:40:56.493Z,32.03
2019-02-08T19:43:24.474Z,29.17
2019-02-08T19:45:52.501Z,30.60
2019-02-08T19:48:20.886Z,29.03
2019-02-08T19:50:49.057Z,33.93
2019-02-08T19:53:17.035Z,30.33
2019-02-08T19:55:45.083Z,29.07
2019-02-08T19:58:13.063Z,29.30
2019-02-08T20:00:41.520Z,30.30
2019-02-08T20:03:09.582Z,30.63
2019-02-08T20:05:37.600Z,28.70
2019-02-08T20:08:08.051Z,27.40
2019-02-08T20:10:37.136Z,28.50
2019-02-08T20:13:05.252Z,29.43
2019-02-08T20:15:33.228Z,29.93
2019-02-08T20:18:01.308Z,29.00
2019-02-08T20:20:30.428Z,28.97
2019-02-08T20:22:58.501Z,31.20
2019-02-08T20:25:30.652Z,30.10
2019-02-08T20:27:58.696Z,31.00
2019-02-08T20:30:26.892Z,29.40
2019-02-08T20:32:54.883Z,30.63
2019-02-08T20:35:23.568Z,28.60
2019-02-08T20:37:51.715Z,27.73
2019-02-08T20:40:21.084Z,28.23
2019-02-08T20:42:49.264Z,30.13
2019-02-08T20:45:19.473Z,30.30
2019-02-08T20:47:47.450Z,30.47
2019-02-08T20:50:16.061Z,29.70
2019-02-08T20:52:44.141Z,30.60
2019-02-08T20:55:12.625Z,33.37
2019-02-08T20:57:40.741Z,31.53
2019-02-08T21:00:18.327Z,31.17
2019-02-08T21:02:46.439Z,29.47
2019-02-08T21:05:14.516Z,29.50
2019-02-08T21:07:42.618Z,27.97
2019-02-08T21:10:10.824Z,27.13
2019-02-08T21:12:38.881Z,29.23
2019-02-08T21:15:07.093Z,26.83
2019-02-08T21:17:35.103Z,29.83
2019-02-08T21:20:03.156Z,28.67
2019-02-08T21:22:31.140Z,29.23
2019-02-08T21:24:59.133Z,27.90
2019-02-08T21:27:27.180Z,32.13
2019-02-08T21:29:57.753Z,32.30
2019-02-08T21:32:25.774Z,29.50
2019-02-08T21:34:53.761Z,30.50
2019-02-08T21:37:21.826Z,31.87
2019-02-08T21:39:50.182Z,31.80
2019-02-08T21:42:18.185Z,32.30
2019-02-08T21:44:46.140Z,29.90
2019-02-08T21:47:14.119Z,28.60
2019-02-08T21:49:43.093Z,26.67
2019-02-08T21:52:11.105Z,27.77
2019-02-08T21:54:39.065Z,28.70
2019-02-08T21:57:06.991Z,28.02
2019-02-08T21:59:34.997Z,28.60
2019-02-08T22:02:03.041Z,27.47
2019-02-08T22:04:31.120Z,26.30
2019-02-08T22:06:59.097Z,26.23
2019-02-08T22:09:27.144Z,26.63
2019-02-08T22:11:55.156Z,27.02
2019-02-08T22:14:23.189Z,25.97
2019-02-08T22:16:51.203Z,26.23
2019-02-08T22:19:19.135Z,28.95
2019-02-08T22:21:47.131Z,28.50
2019-02-08T22:24:15.191Z,26.93
2019-02-08T22:26:43.253Z,26.75
2019-02-08T22:29:14.211Z,24.27
2019-02-08T22:31:40.956Z,24.20
2019-02-08T22:34:08.979Z,24.87
2019-02-08T22:36:36.968Z,25.00
2019-02-08T22:39:06.910Z,25.68
2019-02-08T22:41:34.893Z,25.30
2019-02-08T22:44:02.908Z,25.97
2019-02-08T22:46:31.506Z,22.77
2019-02-08T22:48:59.382Z,25.60
2019-02-08T22:51:27.349Z,25.77
2019-02-08T22:53:55.339Z,27.20
2019-02-08T22:56:23.290Z,27.57
2019-02-08T22:58:51.273Z,25.80
2019-02-08T23:01:30.264Z,31.10
2019-02-08T23:03:59.191Z,28.20
2019-02-08T23:06:27.160Z,27.27
2019-02-08T23:08:55.380Z,28.52
2019-02-08T23:11:23.568Z,26.83
2019-02-08T23:13:51.555Z,27.77
2019-02-08T23:16:19.550Z,26.82
2019-02-08T23:18:47.499Z,25.75
2019-02-08T23:21:15.533Z,25.37
2019-02-08T23:23:43.557Z,25.08
2019-02-08T23:26:11.624Z,25.17
2019-02-08T23:28:40.188Z,25.72
2019-02-08T23:31:08.294Z,24.55
2019-02-08T23:33:36.233Z,26.62
2019-02-08T23:36:04.700Z,25.87
2019-02-08T23:38:32.672Z,27.87
2019-02-08T23:41:00.663Z,24.75
2019-02-08T23:43:28.775Z,29.72
2019-02-08T23:45:56.790Z,26.30
2019-02-08T23:48:24.869Z,24.90
2019-02-08T23:50:52.941Z,25.88
2019-02-08T23:53:21.021Z,25.60
2019-02-08T23:55:49.072Z,26.87
2019-02-08T23:58:17.059Z,26.87
